Time;durP1;ratioP1;P1;durP2;ratioP2;P2;SDS_P1;SDS_P2;PMS_P1;PMS_P2;Temp;Humidity;BMP_temperature;BMP_pressure;BME280_temperature;BME280_humidity;BME280_pressure;Samples;Min_cycle;Max_cycle;Signal;HPM_P1;HPM_P2
2021/10/08 00:00:46;;;;;;;6.00;5.50;;;14.70;99.90;;;;;;5131964;27;20423;-73
2021/10/08 00:03:14;;;;;;;7.00;6.50;;;14.70;99.90;;;;;;5132368;27;20202;-73
2021/10/08 00:05:41;;;;;;;6.37;5.77;;;14.70;99.90;;;;;;5132281;27;20229;-72
2021/10/08 00:08:08;;;;;;;6.50;6.00;;;14.70;99.90;;;;;;5132542;27;20260;-73
2021/10/08 00:10:34;;;;;;;7.07;6.40;;;14.70;99.90;;;;;;5116455;27;20259;-73
2021/10/08 00:13:01;;;;;;;6.53;6.03;;;14.70;99.90;;;;;;5109845;28;20801;-72
2021/10/08 00:15:28;;;;;;;6.40;5.67;;;14.70;99.90;;;;;;5110864;28;20283;-72
2021/10/08 00:17:54;;;;;;;7.37;6.60;;;14.70;99.90;;;;;;5111741;28;20206;-73
2021/10/08 00:20:22;;;;;;;7.60;6.40;;;14.70;99.90;;;;;;5111550;28;20217;-73
2021/10/08 00:22:49;;;;;;;6.30;5.87;;;14.70;99.90;;;;;;5111487;28;20238;-74
2021/10/08 00:25:15;;;;;;;6.87;6.17;;;14.70;99.90;;;;;;5111576;28;20283;-71
2021/10/08 00:27:42;;;;;;;6.97;6.43;;;14.70;99.90;;;;;;5111239;28;20263;-71
2021/10/08 00:30:09;;;;;;;7.93;6.70;;;14.60;99.90;;;;;;5111473;28;20202;-71
2021/10/08 00:32:36;;;;;;;7.13;6.50;;;14.60;99.90;;;;;;5111080;28;20230;-72
2021/10/08 00:35:03;;;;;;;7.57;6.87;;;14.60;99.90;;;;;;5111072;28;20237;-72
2021/10/08 00:37:31;;;;;;;7.37;6.60;;;14.50;99.90;;;;;;5110616;27;20233;-72
2021/10/08 00:39:57;;;;;;;8.37;6.63;;;14.50;99.90;;;;;;5120783;27;20204;-72
2021/10/08 00:42:26;;;;;;;7.63;7.00;;;14.50;99.90;;;;;;5131649;27;20274;-73
2021/10/08 00:44:53;;;;;;;6.90;6.30;;;14.40;99.90;;;;;;5132043;27;20293;-73
2021/10/08 00:47:20;;;;;;;7.50;6.87;;;14.40;99.90;;;;;;5131787;27;20201;-72
2021/10/08 00:49:47;;;;;;;7.17;6.57;;;14.40;99.90;;;;;;5131391;27;20201;-72
2021/10/08 00:52:13;;;;;;;7.70;6.97;;;14.40;99.90;;;;;;5131458;27;20209;-72
2021/10/08 00:54:41;;;;;;;7.77;7.07;;;14.30;99.90;;;;;;5131033;27;20739;-72
2021/10/08 00:57:08;;;;;;;7.50;6.73;;;14.30;99.90;;;;;;5131614;27;20258;-72
2021/10/08 00:59:36;;;;;;;7.60;7.00;;;14.20;99.90;;;;;;5131051;27;20273;-72
2021/10/08 01:02:04;;;;;;;7.60;6.80;;;14.20;99.90;;;;;;5130723;27;20709;-73
2021/10/08 01:04:31;;;;;;;7.83;7.07;;;14.20;99.90;;;;;;5126307;27;20255;-72
2021/10/08 01:06:59;;;;;;;7.10;6.47;;;14.20;99.90;;;;;;5110477;28;20232;-72
2021/10/08 01:09:25;;;;;;;7.50;7.00;;;14.20;99.90;;;;;;5110477;28;20210;-72
2021/10/08 01:11:53;;;;;;;7.00;6.50;;;14.10;99.90;;;;;;5109921;28;20567;-72
2021/10/08 01:14:20;;;;;;;7.60;6.90;;;14.10;99.90;;;;;;5102998;28;20206;-72
2021/10/08 01:16:47;;;;;;;7.43;6.83;;;14.10;99.90;;;;;;5090166;28;20203;-72
2021/10/08 01:19:13;;;;;;;8.10;7.40;;;14.00;99.90;;;;;;5090256;28;20252;-72
2021/10/08 01:21:42;;;;;;;8.33;7.03;;;14.00;99.90;;;;;;5089739;28;20260;-72
2021/10/08 01:24:09;;;;;;;7.70;7.10;;;14.00;99.90;;;;;;5089783;28;20628;-72
2021/10/08 01:26:35;;;;;;;8.10;7.43;;;14.00;99.90;;;;;;5089104;28;20280;-72
2021/10/08 01:29:02;;;;;;;7.30;6.70;;;14.00;99.90;;;;;;5089662;28;20211;-72
2021/10/08 01:31:29;;;;;;;8.27;7.47;;;13.90;99.90;;;;;;5089437;28;20680;-72
2021/10/08 01:33:55;;;;;;;7.07;6.53;;;13.90;99.90;;;;;;5089614;28;20203;-72
2021/10/08 01:36:22;;;;;;;7.53;6.83;;;13.90;99.90;;;;;;5089318;28;20713;-72
2021/10/08 01:38:51;;;;;;;7.60;6.90;;;13.90;99.90;;;;;;5089534;28;20291;-72
2021/10/08 01:41:18;;;;;;;8.07;6.67;;;13.90;99.90;;;;;;5089219;28;20279;-72
2021/10/08 01:43:44;;;;;;;7.37;6.67;;;13.80;99.90;;;;;;5089018;28;20676;-72
2021/10/08 01:46:11;;;;;;;7.00;6.50;;;13.80;99.90;;;;;;5089383;28;20210;-72
2021/10/08 01:48:38;;;;;;;7.33;6.60;;;13.80;99.90;;;;;;5089176;28;20267;-72
2021/10/08 01:51:04;;;;;;;7.60;6.90;;;13.80;99.90;;;;;;5088881;28;20665;-72
2021/10/08 01:53:31;;;;;;;7.47;6.43;;;13.70;99.90;;;;;;5089518;28;20280;-72
2021/10/08 01:55:59;;;;;;;9.60;7.00;;;13.70;99.90;;;;;;5088640;28;20253;-72
2021/10/08 01:58:26;;;;;;;7.30;6.80;;;13.70;99.90;;;;;;5089081;28;20414;-72
2021/10/08 02:00:52;;;;;;;9.30;6.40;;;13.70;99.90;;;;;;5088467;28;20765;-72
2021/10/08 02:03:19;;;;;;;7.67;6.47;;;13.60;99.90;;;;;;5089555;28;20272;-73
2021/10/08 02:05:46;;;;;;;7.17;6.53;;;13.60;99.90;;;;;;5089220;28;20273;-73
2021/10/08 02:08:12;;;;;;;6.83;6.23;;;13.50;99.90;;;;;;5089500;28;20207;-73
2021/10/08 02:10:39;;;;;;;6.80;6.30;;;13.50;99.90;;;;;;5089079;28;20238;-73
2021/10/08 02:13:07;;;;;;;7.50;6.40;;;13.50;99.90;;;;;;5089050;28;20400;-73
2021/10/08 02:15:33;;;;;;;7.27;6.57;;;13.50;99.90;;;;;;5089036;28;20256;-70
2021/10/08 02:18:00;;;;;;;6.50;6.00;;;13.40;99.90;;;;;;5088578;28;20237;-70
2021/10/08 02:20:27;;;;;;;6.67;6.03;;;13.40;99.90;;;;;;5088891;28;20596;-71
2021/10/08 02:22:53;;;;;;;7.00;6.47;;;13.40;99.90;;;;;;5088725;28;20315;-71
2021/10/08 02:25:20;;;;;;;6.77;6.20;;;13.30;99.90;;;;;;5088637;28;20223;-71
2021/10/08 02:27:47;;;;;;;6.63;5.93;;;13.30;99.90;;;;;;5088744;28;20203;-71
2021/10/08 02:30:15;;;;;;;6.70;6.13;;;13.30;99.90;;;;;;5088775;28;20575;-71
2021/10/08 02:32:42;;;;;;;7.23;6.63;;;13.30;99.90;;;;;;5088585;28;20260;-71
2021/10/08 02:35:09;;;;;;;7.03;6.53;;;13.30;99.90;;;;;;5088811;28;20393;-71
2021/10/08 02:37:36;;;;;;;6.90;6.40;;;13.20;99.90;;;;;;5088918;28;20253;-71
2021/10/08 02:40:04;;;;;;;7.07;6.37;;;13.20;99.90;;;;;;5088753;28;20203;-71
2021/10/08 02:42:30;;;;;;;6.40;5.90;;;13.20;99.90;;;;;;5088706;28;20234;-71
2021/10/08 02:44:57;;;;;;;6.73;6.23;;;13.20;99.90;;;;;;5088871;28;21145;-71
2021/10/08 02:47:25;;;;;;;7.60;6.90;;;13.20;99.90;;;;;;5088864;28;20248;-71
2021/10/08 02:49:52;;;;;;;8.63;7.30;;;13.20;99.90;;;;;;5088637;28;20814;-71
2021/10/08 02:52:18;;;;;;;8.17;7.57;;;13.20;99.90;;;;;;5089037;28;20210;-71
2021/10/08 02:54:45;;;;;;;7.37;6.87;;;13.20;99.90;;;;;;5088511;28;20621;-71
2021/10/08 02:57:12;;;;;;;8.10;7.40;;;13.20;99.90;;;;;;5088338;28;20231;-71
2021/10/08 02:59:39;;;;;;;8.00;7.30;;;13.20;99.90;;;;;;5087812;28;20234;-72
2021/10/08 03:02:05;;;;;;;7.63;6.97;;;13.20;99.90;;;;;;5088169;28;20243;-72
2021/10/08 03:04:33;;;;;;;8.93;7.23;;;13.10;99.90;;;;;;5088033;28;20230;-72
2021/10/08 03:07:00;;;;;;;7.43;6.80;;;13.10;99.90;;;;;;5086923;28;20230;-72
2021/10/08 03:09:26;;;;;;;7.80;7.00;;;13.10;99.90;;;;;;5107835;28;20245;-72
2021/10/08 03:11:53;;;;;;;8.13;7.43;;;13.10;99.90;;;;;;5109203;28;20206;-72
2021/10/08 03:14:20;;;;;;;8.40;7.60;;;13.10;99.90;;;;;;5109563;28;20267;-72
2021/10/08 03:16:47;;;;;;;8.67;7.97;;;13.10;99.90;;;;;;5108927;28;20237;-72
2021/10/08 03:19:13;;;;;;;8.20;7.50;;;13.10;99.90;;;;;;5109191;27;20286;-72
2021/10/08 03:21:41;;;;;;;9.00;7.73;;;13.10;99.90;;;;;;5108733;28;20257;-72
2021/10/08 03:24:11;;;;;;;8.03;7.33;;;13.10;99.90;;;;;;5108809;28;20661;-73
2021/10/08 03:26:38;;;;;;;9.23;8.23;;;13.10;99.90;;;;;;5108901;28;20210;-72
2021/10/08 03:29:05;;;;;;;8.50;7.70;;;13.10;99.90;;;;;;5108769;28;20214;-72
2021/10/08 03:31:33;;;;;;;9.27;8.37;;;13.10;99.90;;;;;;5108759;28;20202;-72
2021/10/08 03:33:59;;;;;;;8.40;7.70;;;13.10;99.90;;;;;;5107194;28;20407;-72
2021/10/08 03:36:30;;;;;;;10.83;8.40;;;13.00;99.90;;;;;;5108558;28;20558;-72
2021/10/08 03:38:58;;;;;;;9.73;8.73;;;13.00;99.90;;;;;;5108497;28;20194;-72
2021/10/08 03:41:25;;;;;;;10.20;8.43;;;13.00;99.90;;;;;;5108338;28;20386;-72
2021/10/08 03:43:54;;;;;;;9.83;8.93;;;13.00;99.90;;;;;;5107999;28;20750;-72
2021/10/08 03:46:21;;;;;;;8.77;8.10;;;13.00;99.90;;;;;;5108616;28;20205;-72
2021/10/08 03:49:13;;;;;;;9.23;8.43;;;13.00;99.90;;;;;;5108019;28;20210;-72
2021/10/08 03:51:40;;;;;;;9.33;8.47;;;13.00;99.90;;;;;;5108109;28;20270;-72
2021/10/08 03:54:08;;;;;;;9.70;8.77;;;13.00;99.90;;;;;;5108523;28;20224;-72
2021/10/08 03:56:35;;;;;;;11.73;10.07;;;13.00;99.90;;;;;;5108353;27;20237;-72
2021/10/08 03:59:02;;;;;;;14.47;11.10;;;13.10;99.90;;;;;;5108790;28;20209;-72
2021/10/08 04:01:29;;;;;;;14.27;12.27;;;13.00;99.90;;;;;;5097981;28;20211;-72
2021/10/08 04:03:56;;;;;;;12.33;10.93;;;13.00;99.90;;;;;;5100178;28;20986;-72
2021/10/08 04:06:23;;;;;;;14.80;12.30;;;13.00;99.90;;;;;;5101692;28;20210;-71
2021/10/08 04:08:50;;;;;;;13.93;11.53;;;13.10;99.90;;;;;;5098482;28;20599;-71
2021/10/08 04:11:18;;;;;;;15.90;11.97;;;13.10;99.90;;;;;;5098043;28;20633;-72
2021/10/08 04:13:47;;;;;;;14.87;12.43;;;13.10;99.90;;;;;;5101718;28;20227;-72
2021/10/08 04:16:14;;;;;;;14.83;12.37;;;13.10;99.90;;;;;;5101235;28;20557;-71
2021/10/08 04:18:41;;;;;;;15.37;13.23;;;13.10;99.90;;;;;;5100564;28;20190;-71
2021/10/08 04:21:07;;;;;;;20.13;15.20;;;13.10;99.90;;;;;;5100648;28;20201;-72
2021/10/08 04:23:34;;;;;;;18.27;15.40;;;13.20;99.90;;;;;;5096686;28;20256;-72
2021/10/08 04:26:00;;;;;;;20.53;15.30;;;13.20;99.90;;;;;;5097864;28;20238;-72
2021/10/08 04:28:28;;;;;;;20.03;15.53;;;13.20;99.90;;;;;;5103084;28;20259;-72
2021/10/08 04:30:55;;;;;;;20.20;15.90;;;13.20;99.90;;;;;;5101146;28;20602;-72
2021/10/08 04:33:26;;;;;;;19.37;15.63;;;13.20;99.90;;;;;;5104053;28;20194;-72
2021/10/08 04:35:56;;;;;;;19.13;15.70;;;13.10;99.90;;;;;;5101280;28;20191;-72
2021/10/08 04:38:23;;;;;;;19.83;16.40;;;13.10;99.90;;;;;;5095013;28;20190;-72
2021/10/08 04:40:50;;;;;;;22.77;19.23;;;13.00;99.90;;;;;;5099881;28;20800;-72
2021/10/08 04:43:16;;;;;;;22.37;18.63;;;13.00;99.90;;;;;;5103848;28;20250;-72
2021/10/08 04:45:45;;;;;;;23.40;18.63;;;13.00;99.90;;;;;;5102439;28;20243;-71
2021/10/08 04:48:11;;;;;;;26.53;20.70;;;13.00;99.90;;;;;;5102669;28;20930;-72
2021/10/08 04:50:38;;;;;;;30.87;20.90;;;13.00;99.90;;;;;;5100402;28;20198;-72
2021/10/08 04:53:16;;;;;;;29.57;21.13;;;13.00;99.90;;;;;;5099248;28;20230;-72
2021/10/08 04:55:42;;;;;;;27.10;21.17;;;12.90;99.90;;;;;;5105146;28;20302;-72
2021/10/08 04:58:09;;;;;;;26.20;21.23;;;12.90;99.90;;;;;;5091342;28;20207;-72
2021/10/08 05:00:36;;;;;;;29.23;20.93;;;12.90;99.90;;;;;;5100643;28;20310;-72
2021/10/08 05:03:10;;;;;;;24.90;20.27;;;12.90;99.90;;;;;;5098731;28;20226;-72
2021/10/08 05:05:37;;;;;;;23.23;20.20;;;12.90;99.90;;;;;;5097910;28;20301;-73
2021/10/08 05:08:05;;;;;;;22.73;19.30;;;12.90;99.90;;;;;;5099280;28;20601;-72
2021/10/08 05:10:32;;;;;;;28.57;19.63;;;12.80;99.90;;;;;;5094609;28;20202;-72
2021/10/08 05:12:59;;;;;;;24.87;19.90;;;12.80;99.90;;;;;;5097941;28;20259;-72
2021/10/08 05:15:26;;;;;;;23.90;19.80;;;12.80;99.90;;;;;;5098983;28;20190;-72
2021/10/08 05:17:52;;;;;;;22.80;18.70;;;12.80;99.90;;;;;;5099615;28;20195;-72
2021/10/08 05:20:21;;;;;;;24.03;19.50;;;12.80;99.90;;;;;;5097957;28;20199;-71
2021/10/08 05:22:51;;;;;;;28.17;18.80;;;12.70;99.90;;;;;;5095027;28;20709;-72
2021/10/08 05:25:17;;;;;;;23.83;19.10;;;12.70;99.90;;;;;;5094214;28;20233;-72
2021/10/08 05:27:46;;;;;;;22.03;18.67;;;12.70;99.90;;;;;;5099058;28;20198;-72
2021/10/08 05:30:13;;;;;;;22.33;19.37;;;12.60;99.90;;;;;;5103541;28;20261;-72
2021/10/08 05:32:40;;;;;;;24.27;19.67;;;12.60;99.90;;;;;;5095996;28;20287;-71
2021/10/08 05:35:08;;;;;;;24.10;19.70;;;12.70;99.90;;;;;;5106732;27;20206;-72
2021/10/08 05:37:38;;;;;;;24.77;19.73;;;12.70;99.90;;;;;;5100905;27;20529;-71
2021/10/08 05:40:07;;;;;;;23.53;20.27;;;12.70;99.90;;;;;;5095674;28;20606;-71
2021/10/08 05:42:33;;;;;;;24.37;19.73;;;12.80;99.90;;;;;;5088417;28;20763;-72
2021/10/08 05:45:00;;;;;;;25.53;20.33;;;12.80;99.90;;;;;;5091410;28;20207;-71
2021/10/08 05:47:27;;;;;;;25.67;20.67;;;12.80;99.90;;;;;;5101533;28;20220;-72
2021/10/08 05:49:54;;;;;;;23.30;20.53;;;12.80;99.90;;;;;;5098981;28;20283;-72
2021/10/08 05:52:20;;;;;;;26.77;21.37;;;12.80;99.90;;;;;;5099533;28;20301;-72
2021/10/08 05:54:50;;;;;;;32.23;21.40;;;12.90;99.90;;;;;;5095641;28;20230;-72
2021/10/08 05:57:17;;;;;;;27.63;22.43;;;12.90;99.90;;;;;;5092484;28;20722;-72
2021/10/08 05:59:46;;;;;;;29.73;22.80;;;12.90;99.90;;;;;;5090235;28;20280;-72
2021/10/08 06:02:12;;;;;;;28.33;23.10;;;12.90;99.90;;;;;;5092677;28;20606;-72
2021/10/08 06:04:39;;;;;;;29.67;24.03;;;12.90;99.90;;;;;;5088500;28;20262;-72
2021/10/08 06:07:07;;;;;;;28.70;23.23;;;12.80;99.90;;;;;;5105237;28;20194;-72
2021/10/08 06:09:36;;;;;;;32.77;24.57;;;12.80;99.90;;;;;;5094756;28;20214;-72
2021/10/08 06:12:05;;;;;;;29.67;24.20;;;12.80;99.90;;;;;;5098599;28;20671;-72
2021/10/08 06:14:31;;;;;;;29.93;23.80;;;12.80;99.90;;;;;;5094816;28;20234;-72
2021/10/08 06:17:00;;;;;;;35.60;24.50;;;12.80;99.90;;;;;;5099625;28;20765;-72
2021/10/08 06:19:27;;;;;;;33.47;24.80;;;12.80;99.90;;;;;;5102540;28;20544;-72
2021/10/08 06:21:53;;;;;;;34.47;25.43;;;12.80;99.90;;;;;;5099276;28;20431;-72
2021/10/08 06:24:20;;;;;;;30.17;25.13;;;12.90;99.90;;;;;;5099269;28;20311;-72
2021/10/08 06:26:47;;;;;;;28.33;23.40;;;12.90;99.90;;;;;;5095711;28;20193;-72
2021/10/08 06:29:15;;;;;;;31.57;24.67;;;12.90;99.90;;;;;;5095149;28;20195;-72
2021/10/08 06:31:42;;;;;;;33.90;25.83;;;12.90;99.90;;;;;;5096053;28;20226;-72
2021/10/08 06:34:08;;;;;;;31.53;24.30;;;13.00;99.90;;;;;;5098491;28;20674;-72
2021/10/08 06:36:35;;;;;;;28.90;23.83;;;13.00;99.90;;;;;;5098055;28;20203;-72
2021/10/08 06:39:01;;;;;;;32.93;25.17;;;13.00;99.90;;;;;;5095897;28;20228;-74
2021/10/08 06:41:28;;;;;;;30.30;24.50;;;13.10;99.90;;;;;;5103598;28;20217;-74
2021/10/08 06:43:55;;;;;;;33.73;24.70;;;13.10;99.90;;;;;;5101722;28;20287;-74
2021/10/08 06:46:23;;;;;;;31.77;24.57;;;13.10;99.90;;;;;;5098686;28;20374;-72
2021/10/08 06:48:50;;;;;;;30.63;24.77;;;13.20;99.90;;;;;;5096650;28;20195;-72
2021/10/08 06:51:16;;;;;;;32.53;24.97;;;13.10;99.90;;;;;;5093836;28;20537;-72
2021/10/08 06:53:43;;;;;;;28.27;24.53;;;13.10;99.90;;;;;;5101235;28;20220;-72
2021/10/08 06:56:10;;;;;;;29.37;25.07;;;13.10;99.90;;;;;;5096580;28;20203;-72
2021/10/08 06:58:36;;;;;;;33.73;24.07;;;13.10;99.90;;;;;;5098879;28;20234;-72
2021/10/08 07:01:03;;;;;;;30.73;24.20;;;13.10;99.90;;;;;;5098348;28;20651;-72
2021/10/08 07:03:31;;;;;;;32.10;24.23;;;13.20;99.90;;;;;;5093411;28;20699;-72
2021/10/08 07:05:58;;;;;;;33.23;24.87;;;13.20;99.90;;;;;;5095806;28;20263;-72
2021/10/08 07:08:24;;;;;;;29.37;24.97;;;13.20;99.90;;;;;;5087935;28;20199;-72
2021/10/08 07:10:51;;;;;;;28.50;23.53;;;13.20;99.90;;;;;;5087042;28;20214;-71
2021/10/08 07:13:20;;;;;;;30.00;24.47;;;13.20;99.90;;;;;;5098272;28;20195;-72
2021/10/08 07:15:47;;;;;;;28.17;23.23;;;13.30;99.90;;;;;;5094354;28;20298;-72
2021/10/08 07:18:16;;;;;;;28.33;23.57;;;13.30;99.90;;;;;;5097896;28;20194;-72
2021/10/08 07:20:48;;;;;;;28.70;23.03;;;13.30;99.90;;;;;;5095593;28;20260;-72
2021/10/08 07:23:15;;;;;;;33.63;23.63;;;13.50;99.90;;;;;;5098233;28;20257;-72
2021/10/08 07:25:41;;;;;;;27.50;23.07;;;13.40;99.90;;;;;;5097585;28;20211;-72
2021/10/08 07:28:08;;;;;;;30.93;22.87;;;13.40;99.90;;;;;;5093643;28;20198;-72
2021/10/08 07:30:35;;;;;;;28.77;22.87;;;13.50;99.90;;;;;;5097770;28;20206;-72
2021/10/08 07:33:02;;;;;;;26.17;21.77;;;13.50;99.90;;;;;;5092260;28;20680;-72
2021/10/08 07:35:28;;;;;;;28.27;22.87;;;13.50;99.90;;;;;;5092306;28;20226;-73
2021/10/08 07:37:56;;;;;;;30.87;24.03;;;13.50;99.90;;;;;;5121429;28;20254;-73
2021/10/08 07:40:23;;;;;;;30.83;25.37;;;13.60;99.90;;;;;;5117729;27;20270;-72
2021/10/08 07:42:49;;;;;;;36.40;25.10;;;13.70;99.90;;;;;;5101786;28;20218;-72
2021/10/08 07:45:16;;;;;;;29.03;22.00;;;13.80;99.90;;;;;;5099929;28;20199;-72
2021/10/08 07:47:43;;;;;;;26.10;22.23;;;14.00;99.90;;;;;;5095391;28;20230;-73
2021/10/08 07:50:11;;;;;;;28.83;23.47;;;14.10;99.90;;;;;;5092676;28;20250;-72
2021/10/08 07:52:38;;;;;;;29.30;23.47;;;14.20;99.90;;;;;;5086914;28;20210;-72
2021/10/08 07:55:08;;;;;;;28.77;23.23;;;14.30;99.90;;;;;;5093632;28;20239;-72
2021/10/08 07:57:35;;;;;;;27.30;22.40;;;14.40;99.90;;;;;;5110297;28;20235;-72
2021/10/08 08:00:02;;;;;;;26.97;22.43;;;14.40;99.90;;;;;;5108680;28;20269;-72
2021/10/08 08:02:29;;;;;;;29.53;21.43;;;14.50;99.90;;;;;;5107814;28;20218;-72
2021/10/08 08:04:56;;;;;;;26.07;21.87;;;14.60;99.90;;;;;;5098185;28;20231;-72
2021/10/08 08:07:23;;;;;;;24.83;21.70;;;14.60;99.90;;;;;;5093242;28;20194;-72
2021/10/08 08:09:51;;;;;;;28.17;21.60;;;14.60;99.90;;;;;;5109870;28;20227;-71
2021/10/08 08:12:19;;;;;;;24.87;22.10;;;14.70;99.90;;;;;;5093208;28;20202;-72
2021/10/08 08:14:46;;;;;;;28.40;22.17;;;14.60;99.90;;;;;;5098084;28;20282;-72
2021/10/08 08:17:12;;;;;;;28.63;21.50;;;14.60;99.90;;;;;;5095464;28;20203;-72
2021/10/08 08:19:39;;;;;;;26.00;20.47;;;14.60;99.90;;;;;;5092948;28;20229;-72
2021/10/08 08:22:05;;;;;;;25.23;20.30;;;14.60;99.90;;;;;;5093006;28;20199;-72
2021/10/08 08:24:34;;;;;;;26.03;21.03;;;14.60;99.90;;;;;;5103966;28;20619;-72
2021/10/08 08:27:01;;;;;;;26.57;20.87;;;14.50;99.90;;;;;;5099825;28;20199;-72
2021/10/08 08:29:29;;;;;;;29.90;21.73;;;14.40;99.90;;;;;;5095208;28;20218;-72
2021/10/08 08:31:56;;;;;;;27.00;21.13;;;14.40;99.90;;;;;;5103454;28;20198;-72
2021/10/08 08:34:24;;;;;;;24.90;20.50;;;14.20;99.90;;;;;;5103515;28;20619;-72
2021/10/08 08:36:50;;;;;;;26.83;20.73;;;14.20;99.90;;;;;;5100330;28;20202;-72
2021/10/08 08:39:18;;;;;;;27.40;19.63;;;14.20;99.90;;;;;;5099768;28;21760;-72
2021/10/08 08:41:45;;;;;;;23.23;19.83;;;14.30;99.90;;;;;;5100619;28;20195;-72
2021/10/08 08:44:12;;;;;;;25.73;19.67;;;14.30;99.90;;;;;;5100726;28;21138;-72
2021/10/08 08:46:40;;;;;;;28.53;20.70;;;14.40;99.90;;;;;;5098331;27;20300;-72
2021/10/08 08:49:07;;;;;;;23.63;19.07;;;14.40;99.90;;;;;;5099084;28;20206;-72
2021/10/08 08:51:34;;;;;;;23.27;19.43;;;14.50;99.90;;;;;;5100250;28;20266;-72
2021/10/08 08:54:06;;;;;;;32.63;20.00;;;14.60;99.90;;;;;;5097468;28;20195;-72
2021/10/08 08:56:33;;;;;;;24.67;19.20;;;14.70;99.90;;;;;;5099967;28;20194;-72
2021/10/08 08:59:01;;;;;;;26.33;20.27;;;14.90;99.90;;;;;;5097079;28;20752;-72
2021/10/08 09:01:28;;;;;;;25.17;19.13;;;15.10;99.90;;;;;;5099660;28;20700;-72
2021/10/08 09:04:04;;;;;;;22.57;20.13;;;15.20;99.90;;;;;;5096691;28;20625;-72
2021/10/08 09:06:32;;;;;;;27.00;20.03;;;15.20;99.90;;;;;;5110591;27;20798;-72
2021/10/08 09:08:59;;;;;;;26.07;19.27;;;15.20;99.90;;;;;;5105378;27;20203;-72
2021/10/08 09:11:38;;;;;;;25.07;18.80;;;15.30;99.90;;;;;;5100578;28;20656;-72
2021/10/08 09:14:19;;;;;;;21.33;18.33;;;15.30;99.90;;;;;;5098832;28;20279;-72
2021/10/08 09:17:07;;;;;;;23.13;17.43;;;15.30;99.90;;;;;;5098652;28;20210;-72
2021/10/08 09:19:53;;;;;;;26.03;17.77;;;15.40;99.90;;;;;;5094619;28;20202;-72
2021/10/08 09:22:22;;;;;;;20.30;18.10;;;15.50;99.90;;;;;;5098416;28;20187;-72
2021/10/08 09:24:49;;;;;;;21.37;16.13;;;15.60;99.90;;;;;;5097861;28;20258;-72
2021/10/08 09:27:19;;;;;;;22.47;16.07;;;15.70;99.90;;;;;;5097738;28;20252;-72
2021/10/08 09:29:50;;;;;;;20.33;14.87;;;15.90;99.90;;;;;;5097346;28;20183;-72
2021/10/08 09:32:18;;;;;;;14.90;13.13;;;16.00;99.90;;;;;;5097672;28;20195;-72
2021/10/08 09:34:45;;;;;;;15.07;12.53;;;16.10;99.90;;;;;;5098172;28;20240;-72
2021/10/08 09:37:14;;;;;;;19.93;13.20;;;16.30;99.90;;;;;;5099661;28;20556;-72
2021/10/08 09:39:42;;;;;;;16.33;12.30;;;16.40;99.90;;;;;;5097609;28;20563;-72
2021/10/08 09:42:11;;;;;;;19.53;11.63;;;16.50;99.90;;;;;;5097731;28;20208;-73
2021/10/08 09:44:44;;;;;;;16.53;11.00;;;16.60;99.90;;;;;;5097148;28;20734;-72
2021/10/08 09:47:13;;;;;;;14.67;9.70;;;16.60;99.90;;;;;;5097502;28;20202;-72
2021/10/08 09:49:41;;;;;;;19.30;10.83;;;16.70;99.90;;;;;;5099755;28;20206;-72
2021/10/08 09:52:24;;;;;;;14.10;9.80;;;16.60;99.90;;;;;;5097620;28;20195;-72
2021/10/08 09:54:52;;;;;;;17.07;10.40;;;16.70;99.90;;;;;;5098970;28;20199;-72
2021/10/08 09:57:21;;;;;;;13.90;9.07;;;16.80;99.90;;;;;;5097487;28;20199;-72
2021/10/08 09:59:49;;;;;;;14.50;9.13;;;16.90;99.90;;;;;;5096752;28;20226;-72
2021/10/08 10:02:16;;;;;;;15.77;9.17;;;17.00;99.90;;;;;;5096763;28;21014;-72
2021/10/08 10:04:47;;;;;;;13.47;8.40;;;17.00;99.90;;;;;;5097996;28;20321;-72
2021/10/08 10:07:16;;;;;;;12.17;8.50;;;17.10;99.90;;;;;;5099359;28;20198;-72
2021/10/08 10:09:44;;;;;;;12.20;8.87;;;17.30;99.90;;;;;;5097722;28;20203;-72
2021/10/08 10:12:11;;;;;;;9.67;8.70;;;17.30;99.90;;;;;;5097467;28;20243;-72
2021/10/08 10:14:39;;;;;;;15.33;9.27;;;17.40;99.90;;;;;;5097330;28;20203;-72
2021/10/08 10:17:08;;;;;;;12.33;8.30;;;17.40;99.90;;;;;;5099771;28;20255;-72
2021/10/08 10:19:39;;;;;;;13.30;8.33;;;17.50;99.90;;;;;;5096218;28;20274;-72
2021/10/08 10:22:12;;;;;;;10.40;8.10;;;17.50;99.90;;;;;;5098458;28;20758;-72
2021/10/08 10:24:41;;;;;;;16.77;8.20;;;17.50;99.90;;;;;;5096827;28;20238;-72
2021/10/08 10:27:10;;;;;;;13.30;7.07;;;17.60;99.90;;;;;;5097268;28;20206;-72
2021/10/08 10:29:38;;;;;;;16.67;7.60;;;17.70;99.90;;;;;;5094040;28;20199;-72
2021/10/08 10:32:06;;;;;;;15.40;7.70;;;17.90;99.90;;;;;;5094534;28;20260;-72
2021/10/08 10:34:35;;;;;;;15.57;7.97;;;18.00;99.90;;;;;;5099159;28;20213;-72
2021/10/08 10:37:02;;;;;;;16.63;7.43;;;18.00;99.90;;;;;;5104847;28;20194;-72
2021/10/08 10:39:29;;;;;;;10.70;7.53;;;18.00;99.90;;;;;;5105354;28;20217;-72
2021/10/08 10:42:15;;;;;;;14.13;8.00;;;18.20;99.90;;;;;;5101815;28;20199;-72
2021/10/08 10:45:14;;;;;;;16.20;7.67;;;18.20;99.90;;;;;;5096297;28;20700;-72
2021/10/08 10:47:41;;;;;;;14.33;6.80;;;18.40;99.90;;;;;;5096975;28;20199;-72
2021/10/08 10:50:12;;;;;;;16.33;7.17;;;18.40;99.90;;;;;;5096645;28;20207;-72
2021/10/08 10:52:52;;;;;;;13.20;6.80;;;18.50;99.90;;;;;;5097061;28;20221;-73
2021/10/08 10:55:20;;;;;;;11.40;7.07;;;18.60;99.90;;;;;;5096652;28;20595;-73
2021/10/08 10:57:55;;;;;;;13.17;6.97;;;18.70;99.90;;;;;;5096769;28;20194;-72
2021/10/08 11:00:24;;;;;;;13.03;6.60;;;18.70;99.90;;;;;;5096291;28;20226;-72
2021/10/08 11:03:04;;;;;;;13.17;6.93;;;18.80;99.90;;;;;;5096100;28;20263;-72
2021/10/08 11:05:31;;;;;;;16.07;6.90;;;18.90;99.90;;;;;;5097975;28;20246;-72
2021/10/08 11:08:16;;;;;;;15.57;6.83;;;18.90;99.90;;;;;;5096489;28;20286;-72
2021/10/08 11:10:45;;;;;;;10.43;6.37;;;19.00;99.90;;;;;;5096932;28;20263;-72
2021/10/08 11:13:28;;;;;;;11.83;6.90;;;19.10;99.90;;;;;;5096446;28;20234;-72
2021/10/08 11:16:01;;;;;;;19.30;7.37;;;19.20;99.90;;;;;;5096357;28;20191;-73
2021/10/08 11:18:42;;;;;;;12.23;6.93;;;19.20;99.50;;;;;;5096904;28;20187;-72
2021/10/08 11:21:11;;;;;;;15.10;7.00;;;19.30;99.90;;;;;;5097833;28;20248;-72
2021/10/08 11:23:39;;;;;;;14.13;6.73;;;19.40;99.90;;;;;;5093719;28;20210;-72
2021/10/08 11:26:09;;;;;;;14.77;7.43;;;19.40;99.90;;;;;;5096466;28;20199;-72
2021/10/08 11:28:39;;;;;;;15.50;6.50;;;19.50;99.90;;;;;;5095953;28;20187;-72
2021/10/08 11:31:08;;;;;;;12.73;6.33;;;19.60;99.90;;;;;;5100025;28;20244;-71
2021/10/08 11:33:38;;;;;;;15.63;6.87;;;19.70;99.10;;;;;;5105059;27;20202;-71
2021/10/08 11:36:23;;;;;;;10.70;6.27;;;19.70;99.30;;;;;;5101700;28;20232;-71
2021/10/08 11:38:53;;;;;;;11.07;7.13;;;19.80;99.40;;;;;;5101845;28;20218;-71
2021/10/08 11:41:22;;;;;;;14.30;7.30;;;19.80;98.60;;;;;;5099106;28;20739;-71
2021/10/08 11:44:04;;;;;;;17.77;7.70;;;19.80;98.90;;;;;;5108152;28;20661;-71
2021/10/08 11:46:36;;;;;;;17.40;7.87;;;19.90;98.80;;;;;;5111256;27;20239;-72
2021/10/08 11:49:17;;;;;;;15.93;7.37;;;19.90;99.60;;;;;;5111628;28;20243;-72
2021/10/08 11:51:44;;;;;;;13.55;6.97;;;20.10;99.60;;;;;;5111199;28;20197;-71
2021/10/08 11:54:18;;;;;;;11.20;7.33;;;20.20;99.20;;;;;;5111100;28;20278;-71
2021/10/08 11:57:00;;;;;;;13.43;7.07;;;20.30;98.80;;;;;;5111009;28;20193;-72
2021/10/08 11:59:28;;;;;;;14.98;7.40;;;20.40;98.70;;;;;;5110998;28;20244;-72
2021/10/08 12:02:09;;;;;;;14.27;6.63;;;20.50;99.00;;;;;;5110608;28;20230;-72
2021/10/08 12:04:36;;;;;;;10.30;7.20;;;20.70;98.70;;;;;;5110497;28;20230;-72
2021/10/08 12:07:10;;;;;;;10.65;7.47;;;20.70;98.80;;;;;;5110774;28;20250;-72
2021/10/08 12:09:36;;;;;;;13.23;7.40;;;20.70;98.20;;;;;;5110634;28;20641;-72
2021/10/08 12:12:15;;;;;;;14.23;7.97;;;20.70;98.30;;;;;;5110796;28;20271;-72
2021/10/08 12:14:49;;;;;;;13.25;7.18;;;20.80;98.70;;;;;;5110710;28;20190;-72
2021/10/08 12:17:20;;;;;;;13.30;7.13;;;20.90;98.60;;;;;;5110256;28;20651;-72
2021/10/08 12:19:47;;;;;;;17.40;7.63;;;21.00;98.40;;;;;;5110774;28;20194;-72
2021/10/08 12:22:22;;;;;;;14.75;7.30;;;21.00;97.80;;;;;;5110363;28;20735;-72
2021/10/08 12:24:51;;;;;;;14.57;7.20;;;21.10;98.00;;;;;;5109747;28;20328;-72
2021/10/08 12:27:18;;;;;;;13.38;7.93;;;21.20;97.80;;;;;;5110565;28;20210;-72
2021/10/08 12:29:47;;;;;;;13.07;7.32;;;21.30;98.20;;;;;;5110587;28;20233;-73
2021/10/08 12:32:17;;;;;;;13.45;7.57;;;21.30;98.40;;;;;;5118360;27;20208;-73
2021/10/08 12:34:46;;;;;;;13.02;7.35;;;21.30;97.50;;;;;;5112600;27;20237;-72
2021/10/08 12:37:15;;;;;;;12.43;7.35;;;21.40;97.60;;;;;;5119261;27;20675;-72
2021/10/08 12:39:59;;;;;;;16.88;7.90;;;21.50;98.10;;;;;;5112141;27;20695;-73
2021/10/08 12:42:28;;;;;;;15.07;7.80;;;21.50;97.50;;;;;;5109868;28;20240;-72